Terminal Aerodrome Forecast
Issued by NWS Kansas City/Pleasant Hill, MO

Home | Current Version | Previous Version | Text Only | Print | Product List | Glossary On
Versions: 1 2 3 4 5 6 7 8 9 10 11 12 13 14 15 16 17 18 19
000
FTUS43 KEAX 250500
TAFMCI
TAF
KMCI 250520Z 2506/2606 VRB06KT P6SM SKC
     FM250900 VRB05KT 5SM BR SKC
     FM251500 VRB05KT P6SM SKC
     FM252100 11006KT P6SM SKC=

USA.gov is the U.S. government's official web portal to all federal, state and local government web resources and services.